createdAt,value
2023-01-21T00:02:04.517Z,0.5
2023-01-21T00:07:04.506Z,0.5
2023-01-21T00:12:04.515Z,0.6
2023-01-21T00:17:04.523Z,0.6
2023-01-21T00:22:04.521Z,0.5
2023-01-21T00:27:04.534Z,0.6
2023-01-21T00:32:04.544Z,0.7
2023-01-21T00:37:04.546Z,0.5
2023-01-21T00:42:04.565Z,0.6
2023-01-21T00:47:04.577Z,0.5
2023-01-21T00:52:04.588Z,0.6
2023-01-21T00:57:04.598Z,0.5
2023-01-21T01:02:04.624Z,0.5
2023-01-21T01:07:04.614Z,0.5
2023-01-21T01:12:04.628Z,0.6
2023-01-21T01:17:04.636Z,0.5
2023-01-21T01:22:04.637Z,0.6
2023-01-21T01:27:04.651Z,0.6
2023-01-21T01:32:04.665Z,0.5
2023-01-21T01:37:04.684Z,0.6
2023-01-21T01:42:04.679Z,0.6
2023-01-21T01:47:04.690Z,0.6
2023-01-21T01:52:04.701Z,0.7
2023-01-21T01:57:04.727Z,0.6
2023-01-21T02:02:04.732Z,0.6
2023-01-21T02:07:04.748Z,0.6
2023-01-21T02:12:04.743Z,0.7
2023-01-21T02:17:04.749Z,0.5
2023-01-21T02:22:04.767Z,0.8
2023-01-21T02:27:04.770Z,0.7
2023-01-21T02:32:04.775Z,0.6
2023-01-21T02:37:04.795Z,0.6
2023-01-21T02:42:04.801Z,0.7
2023-01-21T02:47:04.812Z,0.5
2023-01-21T02:52:04.847Z,0.6
2023-01-21T02:57:04.829Z,0.5
2023-01-21T03:02:04.914Z,0.6
2023-01-21T03:07:04.845Z,0.7
2023-01-21T03:12:04.859Z,0.6
2023-01-21T03:17:04.879Z,0.7
2023-01-21T03:22:04.868Z,0.6
2023-01-21T03:27:04.894Z,0.7
2023-01-21T03:32:04.902Z,0.8
2023-01-21T03:37:04.944Z,0.7
2023-01-21T03:42:04.922Z,0.7
2023-01-21T03:47:04.936Z,0.7
2023-01-21T03:52:04.936Z,0.8
2023-01-21T03:57:04.967Z,0.7
2023-01-21T04:02:05.062Z,0.7
2023-01-21T04:07:04.967Z,0.7
2023-01-21T04:12:04.977Z,0.8
2023-01-21T04:17:04.981Z,0.7
2023-01-21T04:22:05.009Z,0.7
2023-01-21T04:27:04.998Z,0.6
2023-01-21T04:32:05.016Z,0.7
2023-01-21T04:37:05.033Z,0.7
2023-01-21T04:42:05.036Z,0.7
2023-01-21T04:47:05.044Z,0.8
2023-01-21T04:52:05.057Z,0.8
2023-01-21T04:57:05.085Z,0.7
2023-01-21T05:02:05.102Z,0.7
2023-01-21T05:07:05.084Z,0.8
2023-01-21T05:12:05.097Z,0.8
2023-01-21T05:17:05.102Z,0.8
2023-01-21T05:22:05.115Z,0.8
2023-01-21T05:27:05.129Z,0.8
2023-01-21T05:32:05.160Z,0.7
2023-01-21T05:37:05.169Z,0.7
2023-01-21T05:42:05.154Z,0.7
2023-01-21T05:47:05.175Z,0.8
2023-01-21T05:52:05.173Z,0.8
2023-01-21T05:57:05.176Z,0.8
2023-01-21T06:02:05.221Z,0.8
2023-01-21T06:07:05.208Z,0.7
2023-01-21T06:12:05.212Z,0.9
2023-01-21T06:17:05.248Z,0.8
2023-01-21T06:22:05.234Z,0.8
2023-01-21T06:27:05.244Z,0.9
2023-01-21T06:32:05.400Z,0.8
2023-01-21T06:37:05.282Z,0.9
2023-01-21T06:42:05.274Z,0.9
2023-01-21T06:47:05.425Z,0.8
2023-01-21T06:52:05.293Z,0.9
2023-01-21T06:57:05.306Z,0.8
2023-01-21T07:02:05.310Z,0.7
2023-01-21T07:07:05.331Z,0.8
2023-01-21T07:12:05.337Z,0.9
2023-01-21T07:17:05.333Z,0.8
2023-01-21T07:22:05.357Z,0.8
2023-01-21T07:27:05.373Z,0.8
2023-01-21T07:32:05.396Z,0.9
2023-01-21T07:37:05.384Z,0.9
2023-01-21T07:42:05.388Z,0.9
2023-01-21T07:47:05.407Z,0.7
2023-01-21T07:52:05.407Z,0.8
2023-01-21T07:57:05.420Z,0.8
2023-01-21T08:02:05.633Z,0.9
2023-01-21T08:07:05.447Z,0.9
2023-01-21T08:12:05.449Z,0.9
2023-01-21T08:17:05.464Z,0.9
2023-01-21T08:22:05.476Z,0.8
2023-01-21T08:27:05.487Z,0.9
2023-01-21T08:32:05.489Z,1.0
2023-01-21T08:37:05.502Z,0.9
2023-01-21T08:42:05.505Z,0.9
2023-01-21T08:47:05.514Z,1.0
2023-01-21T08:52:05.523Z,1.1
2023-01-21T08:57:05.533Z,0.9
2023-01-21T09:02:05.566Z,0.8
2023-01-21T09:07:05.557Z,0.8
2023-01-21T09:12:05.572Z,0.9
2023-01-21T09:17:05.574Z,1.0
2023-01-21T09:22:05.588Z,0.9
2023-01-21T09:27:05.596Z,1.0
2023-01-21T09:32:05.596Z,0.9
2023-01-21T09:37:05.615Z,0.8
2023-01-21T09:42:05.621Z,0.8
2023-01-21T09:47:05.642Z,1.0
2023-01-21T09:52:05.640Z,1.1
2023-01-21T09:57:05.660Z,1.0
2023-01-21T10:02:05.667Z,1.0
2023-01-21T10:07:05.671Z,0.9
2023-01-21T10:12:05.672Z,1.0
2023-01-21T10:17:05.702Z,1.0
2023-01-21T10:22:05.703Z,0.9
2023-01-21T10:27:05.725Z,1.0
2023-01-21T10:32:05.722Z,1.0
2023-01-21T10:37:05.725Z,1.0
2023-01-21T10:42:05.740Z,1.0
2023-01-21T10:47:05.752Z,0.9
2023-01-21T10:52:05.772Z,0.9
2023-01-21T10:57:05.768Z,1.0
2023-01-21T11:02:05.784Z,1.1
2023-01-21T11:07:05.790Z,1.0
2023-01-21T11:12:05.801Z,1.0
2023-01-21T11:17:05.816Z,1.1
2023-01-21T11:22:05.834Z,1.0
2023-01-21T11:27:05.835Z,1.0
2023-01-21T11:32:05.961Z,1.1
2023-01-21T11:37:05.847Z,1.0
2023-01-21T11:42:05.857Z,1.2
2023-01-21T11:47:05.868Z,1.2
2023-01-21T11:52:05.877Z,0.9
2023-01-21T11:57:05.901Z,1.2
2023-01-21T12:02:05.944Z,1.0
2023-01-21T12:07:05.909Z,1.0
2023-01-21T12:12:05.919Z,1.0
2023-01-21T12:17:05.937Z,1.0
2023-01-21T12:22:05.938Z,1.0
2023-01-21T12:27:05.946Z,1.2
2023-01-21T12:32:05.968Z,1.1
2023-01-21T12:37:05.968Z,0.9
2023-01-21T12:42:05.984Z,1.1
2023-01-21T12:47:05.992Z,1.1
2023-01-21T16:53:28.893Z,1.2
2023-01-21T16:58:16.320Z,1.4
2023-01-21T17:03:16.370Z,1.1
2023-01-21T17:08:16.364Z,1.2
2023-01-21T17:13:16.378Z,1.1
2023-01-21T17:18:16.400Z,1.1
2023-01-21T17:23:16.404Z,0.9
2023-01-21T17:28:16.409Z,1.1
2023-01-21T17:33:16.419Z,1.1
2023-01-21T17:38:16.429Z,1.0
2023-01-21T17:43:16.439Z,1.1
2023-01-21T17:48:16.448Z,1.1
2023-01-21T17:53:16.464Z,1.0
2023-01-21T17:58:16.484Z,1.2
2023-01-21T18:03:16.500Z,0.9
2023-01-21T18:08:16.532Z,1.0
2023-01-21T18:13:16.494Z,1.2
2023-01-21T18:18:16.514Z,0.9
2023-01-21T18:23:16.521Z,1.0
2023-01-21T18:28:16.529Z,1.0
2023-01-21T18:33:16.544Z,1.1
2023-01-21T18:38:16.568Z,1.0
2023-01-21T18:43:16.581Z,0.9
2023-01-21T18:48:16.615Z,1.0
2023-01-21T18:53:16.574Z,0.9
2023-01-21T18:58:16.591Z,0.9
2023-01-21T19:03:16.608Z,1.2
2023-01-21T19:08:16.650Z,1.1
2023-01-21T19:13:16.618Z,0.9
2023-01-21T19:18:16.645Z,1.1
2023-01-21T19:23:16.643Z,1.0
2023-01-21T19:28:16.639Z,0.8
2023-01-21T19:33:16.666Z,1.0
2023-01-21T19:38:16.671Z,0.9
2023-01-21T19:43:16.683Z,0.9
2023-01-21T19:48:16.688Z,1.0
2023-01-21T19:53:16.692Z,0.8
2023-01-21T19:58:16.711Z,1.0
2023-01-21T20:03:16.737Z,1.0
2023-01-21T20:08:16.724Z,0.9
2023-01-21T20:13:16.732Z,1.0
2023-01-21T20:18:16.767Z,1.0
2023-01-21T20:23:16.779Z,1.0
2023-01-21T20:28:16.765Z,1.0
2023-01-21T20:33:16.775Z,0.9
2023-01-21T20:38:16.778Z,1.0
2023-01-21T20:43:18.974Z,0.9
2023-01-21T20:48:16.809Z,1.0
2023-01-21T20:53:16.821Z,0.9
2023-01-21T20:58:16.820Z,0.8
2023-01-21T21:03:16.840Z,0.9
2023-01-21T21:08:16.844Z,1.1
2023-01-21T21:13:16.855Z,0.8
2023-01-21T21:18:16.860Z,0.9
2023-01-21T21:23:16.870Z,0.8
2023-01-21T21:28:16.895Z,0.9
2023-01-21T21:33:16.902Z,0.8
2023-01-21T21:38:16.909Z,0.9
2023-01-21T21:43:16.920Z,0.9
2023-01-21T21:48:16.930Z,0.8
2023-01-21T21:53:16.932Z,0.9
2023-01-21T21:58:16.939Z,0.9
2023-01-21T22:03:16.955Z,0.9
2023-01-21T22:08:16.964Z,0.8
2023-01-21T22:13:16.974Z,0.9
2023-01-21T22:18:16.980Z,0.9
2023-01-21T22:23:17.001Z,0.8
2023-01-21T22:28:16.999Z,0.9
2023-01-21T22:33:17.008Z,0.9
2023-01-21T22:38:17.017Z,0.8
2023-01-21T22:43:17.023Z,0.9
2023-01-21T22:48:17.045Z,0.8
2023-01-21T22:53:17.054Z,0.8
2023-01-21T22:58:17.056Z,0.8
2023-01-21T23:03:17.066Z,0.8
2023-01-21T23:08:17.080Z,0.9
2023-01-21T23:13:17.087Z,0.7
2023-01-21T23:18:17.098Z,0.8
2023-01-21T23:23:17.112Z,0.9
2023-01-21T23:28:17.121Z,0.9
2023-01-21T23:33:17.122Z,1.0
2023-01-21T23:38:17.138Z,1.0
2023-01-21T23:43:17.156Z,0.8
2023-01-21T23:48:17.154Z,0.9
2023-01-21T23:53:17.168Z,0.8
2023-01-21T23:58:17.176Z,0.8
